createdAt,value
2017-10-04T00:04:47.526Z,9.57
2017-10-04T00:07:15.702Z,9.23
2017-10-04T00:09:43.803Z,11.38
2017-10-04T00:12:10.092Z,10.25
2017-10-04T00:14:37.060Z,8.15
2017-10-04T00:17:03.610Z,7.82
2017-10-04T00:19:31.248Z,10.02
2017-10-04T00:21:58.490Z,10.80
2017-10-04T00:24:25.955Z,5.82
2017-10-04T00:26:52.912Z,10.43
2017-10-04T00:29:21.620Z,10.18
2017-10-04T00:31:47.839Z,10.73
2017-10-04T00:34:14.551Z,8.88
2017-10-04T00:36:41.690Z,7.60
2017-10-04T00:39:09.334Z,7.57
2017-10-04T00:41:36.126Z,14.55
2017-10-04T00:44:03.235Z,9.40
2017-10-04T00:46:31.038Z,8.30
2017-10-04T00:48:57.879Z,9.82
2017-10-04T00:51:24.741Z,8.07
2017-10-04T00:53:52.765Z,10.55
2017-10-04T00:56:20.829Z,6.55
2017-10-04T00:58:48.282Z,6.97
2017-10-04T01:01:16.664Z,7.85
2017-10-04T01:03:44.676Z,7.62
2017-10-04T01:06:11.138Z,5.78
2017-10-04T01:08:38.691Z,11.35
2017-10-04T01:11:04.922Z,11.32
2017-10-04T01:13:32.175Z,8.27
2017-10-04T01:15:59.388Z,10.40
2017-10-04T01:18:26.523Z,11.12
2017-10-04T01:20:52.793Z,11.45
2017-10-04T01:23:19.302Z,13.38
2017-10-04T01:25:46.223Z,13.00
2017-10-04T01:28:13.805Z,10.93
2017-10-04T01:30:40.451Z,12.57
2017-10-04T01:33:08.626Z,11.30
2017-10-04T01:35:36.632Z,16.85
2017-10-04T01:38:02.845Z,10.40
2017-10-04T01:40:29.268Z,12.25
2017-10-04T01:42:55.512Z,9.27
2017-10-04T01:45:23.461Z,13.05
2017-10-04T01:47:51.466Z,12.23
2017-10-04T01:50:17.698Z,16.10
2017-10-04T01:52:44.967Z,18.67
2017-10-04T01:55:12.492Z,10.80
2017-10-04T01:57:39.209Z,9.85
2017-10-04T02:00:06.001Z,11.95
2017-10-04T02:02:32.960Z,16.83
2017-10-04T02:04:59.802Z,9.38
2017-10-04T02:07:26.609Z,9.73
2017-10-04T02:09:53.131Z,10.75
2017-10-04T02:12:20.691Z,11.27
2017-10-04T02:14:46.893Z,11.02
2017-10-04T02:17:13.096Z,13.95
2017-10-04T02:19:39.846Z,10.27
2017-10-04T02:22:07.014Z,22.73
2017-10-04T02:24:33.825Z,12.18
2017-10-04T02:27:01.066Z,16.23
2017-10-04T02:29:29.476Z,12.20
2017-10-04T02:31:57.500Z,13.02
2017-10-04T02:34:24.989Z,18.10
2017-10-04T02:36:53.024Z,11.88
2017-10-04T02:39:20.673Z,13.43
2017-10-04T02:41:48.243Z,20.17
2017-10-04T02:44:14.457Z,15.50
2017-10-04T02:46:40.652Z,16.17
2017-10-04T02:49:07.720Z,12.30
2017-10-04T02:51:34.480Z,17.60
2017-10-04T02:54:00.688Z,11.68
2017-10-04T02:56:26.918Z,12.02
2017-10-04T02:58:53.615Z,12.15
2017-10-04T03:01:19.822Z,19.87
2017-10-04T03:03:48.324Z,12.05
2017-10-04T03:06:15.097Z,258.92
2017-10-04T06:28:53.578Z,477.80
2017-10-04T06:31:20.904Z,479.43
2017-10-04T06:33:48.428Z,44.08
2017-10-04T06:36:14.802Z,24.48
2017-10-04T06:38:41.301Z,25.80
2017-10-04T06:41:08.335Z,16.45
2017-10-04T06:43:35.823Z,15.95
2017-10-04T06:46:03.418Z,15.60
2017-10-04T06:48:30.959Z,18.70
2017-10-04T06:50:57.199Z,22.90
2017-10-04T06:53:24.044Z,21.23
2017-10-04T06:55:57.476Z,19.58
2017-10-04T06:58:25.657Z,17.85
2017-10-04T07:00:52.517Z,15.70
2017-10-04T07:03:18.990Z,13.65
2017-10-04T07:05:45.903Z,18.02
2017-10-04T07:08:12.950Z,18.05
2017-10-04T07:10:40.311Z,16.50
2017-10-04T07:13:07.736Z,14.90
2017-10-04T07:15:35.495Z,16.48
2017-10-04T07:18:01.762Z,13.15
2017-10-04T07:20:28.733Z,19.87
2017-10-04T07:22:54.917Z,18.17
2017-10-04T07:25:21.127Z,14.95
2017-10-04T07:27:48.007Z,15.82
2017-10-04T07:30:15.574Z,14.65
2017-10-04T07:32:41.803Z,11.00
2017-10-04T07:35:08.886Z,13.55
2017-10-04T07:37:36.001Z,12.37
2017-10-04T07:40:03.191Z,17.27
2017-10-04T07:42:29.386Z,14.75
2017-10-04T07:44:56.254Z,16.85
2017-10-04T07:47:22.506Z,13.13
2017-10-04T07:49:49.219Z,15.77
2017-10-04T07:52:15.949Z,15.38
2017-10-04T07:54:42.970Z,17.55
2017-10-04T07:57:10.788Z,20.12
2017-10-04T07:59:37.403Z,15.13
2017-10-04T08:02:04.437Z,18.85
2017-10-04T08:04:30.652Z,15.73
2017-10-04T08:06:57.863Z,18.08
2017-10-04T08:09:25.553Z,16.80
2017-10-04T08:11:52.510Z,17.60
2017-10-04T08:14:18.855Z,18.67
2017-10-04T08:16:45.168Z,16.15
2017-10-04T08:19:11.896Z,17.95
2017-10-04T08:21:39.400Z,20.35
2017-10-04T08:24:05.659Z,15.07
2017-10-04T08:26:31.990Z,21.45
2017-10-04T08:28:58.255Z,17.65
2017-10-04T08:31:24.986Z,19.80
2017-10-04T08:33:51.170Z,19.00
2017-10-04T08:36:17.401Z,17.92
2017-10-04T08:38:44.384Z,21.90
2017-10-04T08:41:11.130Z,17.95
2017-10-04T08:43:37.762Z,18.95
2017-10-04T08:46:04.467Z,21.25
2017-10-04T08:48:37.565Z,15.65
2017-10-04T08:51:04.342Z,17.20
2017-10-04T08:53:31.064Z,16.33
2017-10-04T08:55:58.243Z,17.42
2017-10-04T08:58:25.079Z,16.30
2017-10-04T09:00:52.241Z,16.92
2017-10-04T09:03:18.688Z,16.75
2017-10-04T09:05:48.271Z,17.10
2017-10-04T09:08:15.068Z,15.65
2017-10-04T09:10:42.707Z,16.35
2017-10-04T09:13:09.249Z,19.33
2017-10-04T09:15:36.242Z,13.50
2017-10-04T09:18:02.778Z,16.83
2017-10-04T09:20:29.193Z,16.23
2017-10-04T09:22:56.589Z,17.33
2017-10-04T09:25:23.608Z,15.18
2017-10-04T09:27:50.100Z,18.02
2017-10-04T09:30:17.345Z,19.52
2017-10-04T09:32:45.520Z,24.27
2017-10-04T09:35:12.639Z,17.90
2017-10-04T09:37:38.864Z,15.90
2017-10-04T09:40:05.474Z,14.82
2017-10-04T09:42:33.305Z,14.15
2017-10-04T09:44:59.859Z,17.85
2017-10-04T09:47:27.465Z,16.45
2017-10-04T09:49:53.811Z,21.00
2017-10-04T09:52:20.275Z,17.40
2017-10-04T09:54:47.933Z,19.45
2017-10-04T09:57:14.463Z,15.60
2017-10-04T09:59:41.447Z,17.85
2017-10-04T10:02:07.685Z,18.83
2017-10-04T10:04:33.908Z,19.98
2017-10-04T10:07:00.274Z,19.13
2017-10-04T10:09:27.938Z,18.30
2017-10-04T10:11:55.385Z,17.97
2017-10-04T10:14:23.465Z,13.67
2017-10-04T10:16:53.884Z,16.27
2017-10-04T10:19:18.358Z,14.77
2017-10-04T10:21:45.290Z,15.43
2017-10-04T10:24:12.733Z,14.90
2017-10-04T10:26:39.141Z,15.17
2017-10-04T10:29:06.113Z,16.60
2017-10-04T10:31:32.362Z,14.07
2017-10-04T10:33:59.222Z,16.13
2017-10-04T10:36:25.483Z,18.03
2017-10-04T10:38:52.796Z,13.83
2017-10-04T10:41:19.125Z,14.93
2017-10-04T10:43:46.182Z,17.47
2017-10-04T10:46:13.368Z,17.93
2017-10-04T10:48:40.872Z,17.10
2017-10-04T10:51:07.564Z,15.50
2017-10-04T10:53:35.566Z,13.03
2017-10-04T10:56:03.727Z,12.93
2017-10-04T10:58:30.066Z,13.90
2017-10-04T11:00:56.817Z,13.03
2017-10-04T11:03:23.090Z,10.87
2017-10-04T11:05:49.552Z,12.40
2017-10-04T11:08:16.818Z,12.53
2017-10-04T11:10:43.873Z,20.63
2017-10-04T11:13:11.138Z,13.60
2017-10-04T11:15:37.378Z,13.70
2017-10-04T11:18:05.137Z,19.50
2017-10-04T11:20:31.369Z,11.60
2017-10-04T11:22:57.569Z,13.27
2017-10-04T11:25:23.895Z,10.70
2017-10-04T11:27:50.119Z,11.00
2017-10-04T11:30:16.869Z,13.93
2017-10-04T11:32:43.736Z,10.77
2017-10-04T11:35:09.977Z,11.20
2017-10-04T11:37:36.747Z,10.20
2017-10-04T11:40:04.665Z,11.53
2017-10-04T11:42:31.988Z,9.10
2017-10-04T11:44:59.352Z,10.43
2017-10-04T11:47:25.570Z,9.47
2017-10-04T11:49:51.773Z,12.17
2017-10-04T11:52:19.111Z,11.07
2017-10-04T11:54:45.305Z,11.03
2017-10-04T11:57:12.050Z,7.90
2017-10-04T11:59:39.663Z,8.60
2017-10-04T12:02:05.991Z,9.70
2017-10-04T12:04:32.951Z,9.17
2017-10-04T12:06:59.594Z,7.80
2017-10-04T12:09:27.482Z,7.30
2017-10-04T12:11:55.074Z,12.40
2017-10-04T12:14:22.088Z,7.83
2017-10-04T12:16:48.424Z,9.33
2017-10-04T12:19:14.938Z,9.03
2017-10-04T12:21:41.984Z,14.50
2017-10-04T12:24:08.489Z,6.93
2017-10-04T12:26:35.473Z,12.30
2017-10-04T12:29:02.788Z,10.40
2017-10-04T12:31:30.302Z,6.60
2017-10-04T12:33:56.527Z,8.23
2017-10-04T12:36:22.744Z,8.23
2017-10-04T12:38:49.482Z,9.10
2017-10-04T12:41:16.724Z,10.57
2017-10-04T12:43:43.838Z,7.13
2017-10-04T12:46:11.125Z,9.70
2017-10-04T12:48:38.307Z,7.83
2017-10-04T12:51:04.552Z,13.10
2017-10-04T12:53:31.313Z,9.10
2017-10-04T12:55:58.438Z,12.43
2017-10-04T12:58:25.463Z,9.77
2017-10-04T13:00:51.791Z,9.60
2017-10-04T13:03:19.370Z,10.80
2017-10-04T13:05:46.391Z,6.00
2017-10-04T13:08:12.836Z,5.83
2017-10-04T13:10:39.847Z,6.63
2017-10-04T13:13:06.270Z,6.70
2017-10-04T13:15:33.225Z,7.13
2017-10-04T13:17:59.453Z,6.80
2017-10-04T13:20:26.201Z,8.60
2017-10-04T13:22:52.821Z,6.93
2017-10-04T13:25:19.790Z,8.50
2017-10-04T13:27:46.591Z,12.27
2017-10-04T13:30:13.610Z,7.40
2017-10-04T13:32:40.196Z,8.97
2017-10-04T13:35:07.768Z,6.10
2017-10-04T13:37:35.750Z,5.50
2017-10-04T13:40:02.468Z,6.03
2017-10-04T13:42:28.708Z,6.23
2017-10-04T13:44:55.334Z,8.87
2017-10-04T13:47:23.744Z,5.27
2017-10-04T13:49:50.095Z,5.33
2017-10-04T13:52:16.327Z,4.40
2017-10-04T13:54:43.095Z,5.20
2017-10-04T13:57:10.957Z,5.40
2017-10-04T13:59:37.435Z,5.73
2017-10-04T14:02:05.150Z,5.63
2017-10-04T14:04:32.942Z,4.40
2017-10-04T14:06:59.472Z,3.73
2017-10-04T14:09:27.120Z,3.60
2017-10-04T14:11:54.192Z,3.80
2017-10-04T14:14:20.447Z,2.93
2017-10-04T14:16:48.288Z,3.63
2017-10-04T14:19:14.701Z,5.77
2017-10-04T14:21:41.955Z,3.27
2017-10-04T14:24:08.708Z,2.60
2017-10-04T14:26:34.954Z,5.03
2017-10-04T14:29:01.321Z,3.73
2017-10-04T14:31:28.618Z,3.20
2017-10-04T14:33:55.744Z,5.93
2017-10-04T14:36:22.621Z,4.03
2017-10-04T14:38:49.863Z,6.17
2017-10-04T14:41:16.637Z,2.63
2017-10-04T14:43:43.527Z,4.23
2017-10-04T14:46:10.477Z,3.20
2017-10-04T14:48:36.783Z,7.23
2017-10-04T14:51:03.994Z,3.83
2017-10-04T14:53:31.224Z,4.13
2017-10-04T14:55:58.297Z,4.80
2017-10-04T14:58:25.330Z,6.33
2017-10-04T15:00:51.562Z,3.50
2017-10-04T15:03:18.717Z,4.17
2017-10-04T15:05:44.927Z,3.47
2017-10-04T15:08:11.149Z,5.00
2017-10-04T15:10:37.965Z,3.57
2017-10-04T15:13:04.925Z,2.70
2017-10-04T15:15:31.243Z,4.93
2017-10-04T15:17:58.213Z,3.23
2017-10-04T15:20:24.477Z,5.53
2017-10-04T15:22:50.862Z,4.90
2017-10-04T15:25:17.694Z,3.20
2017-10-04T15:27:44.671Z,2.20
2017-10-04T15:30:10.914Z,3.07
2017-10-04T15:32:37.856Z,2.40
2017-10-04T15:35:04.366Z,2.87
2017-10-04T15:37:30.690Z,4.87
2017-10-04T15:39:56.928Z,2.40
2017-10-04T15:42:23.430Z,3.90
2017-10-04T15:44:49.961Z,2.47
2017-10-04T15:47:24.011Z,5.30
2017-10-04T15:49:50.855Z,2.67
2017-10-04T15:52:17.493Z,3.80
2017-10-04T15:54:45.125Z,3.10
2017-10-04T15:57:12.084Z,2.60
2017-10-04T15:59:38.731Z,3.27
2017-10-04T16:02:06.075Z,3.20
2017-10-04T16:04:33.145Z,3.77
2017-10-04T16:06:59.365Z,2.17
2017-10-04T16:09:26.203Z,2.80
2017-10-04T16:11:53.474Z,3.20
2017-10-04T16:14:19.770Z,3.07
2017-10-04T16:16:46.560Z,3.90
2017-10-04T16:19:13.500Z,3.00
2017-10-04T16:21:40.503Z,2.90
2017-10-04T16:24:06.787Z,3.27
2017-10-04T16:26:34.701Z,2.70
2017-10-04T16:29:00.976Z,3.47
2017-10-04T16:31:27.417Z,3.80
2017-10-04T16:33:54.424Z,3.50
2017-10-04T16:36:21.666Z,2.67
2017-10-04T16:38:47.970Z,6.47
2017-10-04T16:41:15.431Z,7.00
2017-10-04T16:43:42.669Z,4.67
2017-10-04T16:46:10.632Z,3.97
2017-10-04T16:48:37.645Z,8.40
2017-10-04T16:51:03.911Z,4.37
2017-10-04T16:53:31.012Z,4.53
2017-10-04T16:55:57.360Z,8.90
2017-10-04T16:58:23.662Z,4.30
2017-10-04T17:00:50.289Z,3.10
2017-10-04T17:03:16.544Z,7.40
2017-10-04T17:05:43.300Z,7.57
2017-10-04T17:08:10.382Z,10.00
2017-10-04T17:10:38.092Z,12.67
2017-10-04T17:13:04.862Z,11.23
2017-10-04T17:15:31.673Z,6.72
2017-10-04T17:17:58.144Z,7.00
2017-10-04T17:20:25.322Z,6.00
2017-10-04T17:22:52.550Z,7.78
2017-10-04T17:25:19.494Z,10.57
2017-10-04T17:27:46.549Z,17.43
2017-10-04T17:30:14.130Z,10.27
2017-10-04T17:32:41.371Z,12.27
2017-10-04T17:35:08.170Z,16.83
2017-10-04T17:37:35.687Z,14.32
2017-10-04T17:40:03.737Z,12.63
2017-10-04T17:42:32.024Z,11.75
2017-10-04T17:44:58.742Z,21.95
2017-10-04T17:47:24.992Z,9.57
2017-10-04T17:49:51.818Z,10.20
2017-10-04T17:52:18.833Z,15.02
2017-10-04T17:54:45.733Z,17.62
2017-10-04T17:57:12.525Z,20.30
2017-10-04T17:59:39.132Z,21.40
2017-10-04T18:02:05.452Z,26.23
2017-10-04T18:04:31.898Z,17.48
2017-10-04T18:06:59.022Z,15.98
2017-10-04T18:09:25.337Z,11.23
2017-10-04T18:11:52.694Z,14.35
2017-10-04T18:14:18.900Z,12.07
2017-10-04T18:16:45.905Z,12.77
2017-10-04T18:19:13.007Z,13.88
2017-10-04T18:21:39.318Z,14.30
2017-10-04T18:24:06.861Z,12.95
2017-10-04T18:26:33.981Z,15.95
2017-10-04T18:29:00.229Z,10.80
2017-10-04T18:31:26.463Z,12.50
2017-10-04T18:33:52.821Z,10.45
2017-10-04T18:36:19.348Z,13.57
2017-10-04T18:38:47.337Z,10.48
2017-10-04T18:41:13.580Z,14.60
2017-10-04T18:43:40.821Z,12.52
2017-10-04T18:46:07.945Z,13.15
2017-10-04T18:48:35.183Z,17.95
2017-10-04T18:51:01.392Z,16.80
2017-10-04T18:53:28.308Z,18.00
2017-10-04T18:55:55.610Z,17.65
2017-10-04T18:58:23.206Z,20.58
2017-10-04T19:00:51.240Z,24.45
2017-10-04T19:03:18.351Z,18.27
2017-10-04T19:05:45.129Z,31.10
2017-10-04T19:08:12.271Z,23.33
2017-10-04T19:10:38.706Z,18.48
2017-10-04T19:13:06.051Z,16.27
2017-10-04T19:15:33.671Z,13.60
2017-10-04T19:17:59.900Z,13.27
2017-10-04T19:20:27.655Z,20.62
2017-10-04T19:22:55.373Z,17.00
2017-10-04T19:25:22.393Z,13.00
2017-10-04T19:27:49.865Z,12.37
2017-10-04T19:30:16.277Z,11.65
2017-10-04T19:32:43.139Z,13.02
2017-10-04T19:35:10.247Z,15.23
2017-10-04T19:37:37.851Z,12.45
2017-10-04T19:40:04.431Z,19.40
2017-10-04T19:42:32.161Z,11.40
2017-10-04T19:44:59.042Z,15.02
2017-10-04T19:47:27.419Z,16.70
2017-10-04T19:49:54.730Z,19.35
2017-10-04T19:52:21.314Z,12.57
2017-10-04T19:54:48.642Z,14.10
2017-10-04T19:57:14.982Z,13.82
2017-10-04T19:59:42.599Z,14.13
2017-10-04T20:02:10.704Z,13.57
2017-10-04T20:04:37.188Z,11.73
2017-10-04T20:07:04.792Z,16.98
2017-10-04T20:09:31.997Z,9.30
2017-10-04T20:11:58.216Z,8.95
2017-10-04T20:14:25.289Z,12.82
2017-10-04T20:16:52.294Z,10.55
2017-10-04T20:19:19.116Z,8.00
2017-10-04T20:21:45.589Z,12.25
2017-10-04T20:24:13.454Z,12.20
2017-10-04T20:26:40.297Z,9.23
2017-10-04T20:29:08.836Z,12.75
2017-10-04T20:31:35.272Z,11.00
2017-10-04T20:34:01.518Z,9.00
2017-10-04T20:36:28.602Z,10.25
2017-10-04T20:38:54.916Z,10.07
2017-10-04T20:41:21.850Z,9.02
2017-10-04T20:43:48.595Z,9.35
2017-10-04T20:46:14.925Z,8.95
2017-10-04T20:48:41.833Z,8.88
2017-10-04T20:51:08.230Z,9.52
2017-10-04T20:53:35.837Z,13.25
2017-10-04T20:56:02.804Z,11.20
2017-10-04T20:58:29.029Z,8.15
2017-10-04T21:00:55.246Z,8.82
2017-10-04T21:03:23.425Z,10.95
2017-10-04T21:05:50.646Z,15.65
2017-10-04T21:08:17.243Z,11.32
2017-10-04T21:10:43.621Z,11.45
2017-10-04T21:13:11.200Z,12.05
2017-10-04T21:15:38.065Z,11.20
2017-10-04T21:18:04.284Z,11.90
2017-10-04T21:20:31.592Z,9.85
2017-10-04T21:22:58.422Z,10.70
2017-10-04T21:25:24.922Z,8.57
2017-10-04T21:27:51.950Z,8.52
2017-10-04T21:30:18.250Z,8.48
2017-10-04T21:32:45.388Z,8.30
2017-10-04T21:35:14.343Z,10.48
2017-10-04T21:37:40.889Z,8.15
2017-10-04T21:40:09.037Z,10.10
2017-10-04T21:42:35.782Z,11.00
2017-10-04T21:45:02.686Z,9.80
2017-10-04T21:47:29.253Z,31.40
2017-10-04T21:49:56.336Z,16.45
2017-10-04T21:52:22.772Z,9.52
2017-10-04T21:54:50.794Z,9.65
2017-10-04T21:57:18.766Z,6.97
2017-10-04T21:59:45.542Z,9.00
2017-10-04T22:02:12.295Z,8.45
2017-10-04T22:04:38.735Z,12.23
2017-10-04T22:07:06.479Z,8.98
2017-10-04T22:09:32.675Z,9.77
2017-10-04T22:11:58.935Z,11.68
2017-10-04T22:14:26.126Z,14.98
2017-10-04T22:16:53.671Z,6.62
2017-10-04T22:19:19.951Z,13.85
2017-10-04T22:21:46.851Z,11.23
2017-10-04T22:24:13.947Z,11.10
2017-10-04T22:26:41.491Z,15.95
2017-10-04T22:29:07.946Z,10.50
2017-10-04T22:31:34.175Z,14.00
2017-10-04T22:34:01.135Z,12.57
2017-10-04T22:36:27.886Z,11.82
2017-10-04T22:38:55.640Z,10.80
2017-10-04T22:41:22.980Z,12.07
2017-10-04T22:43:49.697Z,11.63
2017-10-04T22:46:16.869Z,10.75
2017-10-04T22:48:43.616Z,10.52
2017-10-04T22:51:10.396Z,7.30
2017-10-04T22:53:37.450Z,10.07
2017-10-04T22:56:05.047Z,9.70
2017-10-04T22:58:32.790Z,8.13
2017-10-04T23:00:59.556Z,6.70
2017-10-04T23:03:26.203Z,8.55
2017-10-04T23:05:54.103Z,11.88
2017-10-04T23:08:21.133Z,7.93
2017-10-04T23:10:48.152Z,10.10
2017-10-04T23:13:14.332Z,12.88
2017-10-04T23:15:42.023Z,8.85
2017-10-04T23:18:10.337Z,7.25
2017-10-04T23:20:37.819Z,13.55
2017-10-04T23:23:04.805Z,14.85
2017-10-04T23:25:32.304Z,7.95
2017-10-04T23:27:59.326Z,8.52
2017-10-04T23:30:27.339Z,8.35
2017-10-04T23:32:53.614Z,8.52
2017-10-04T23:35:20.835Z,9.23
2017-10-04T23:37:49.012Z,7.57
2017-10-04T23:40:16.932Z,7.20
2017-10-04T23:42:44.141Z,8.75
2017-10-04T23:45:10.517Z,4.85
2017-10-04T23:47:37.546Z,6.20
2017-10-04T23:50:04.926Z,5.10
2017-10-04T23:52:32.769Z,7.30
2017-10-04T23:54:59.062Z,6.30
2017-10-04T23:57:26.657Z,10.05
2017-10-04T23:59:52.968Z,5.70
